createdAt,value
2019-03-25T00:01:09.259Z,30.12
2019-03-25T00:03:40.327Z,33.02
2019-03-25T00:06:11.380Z,34.83
2019-03-25T00:08:42.431Z,34.65
2019-03-25T00:11:13.471Z,35.35
2019-03-25T00:13:45.500Z,31.55
2019-03-25T00:16:16.516Z,31.00
2019-03-25T00:18:50.636Z,34.03
2019-03-25T00:21:21.785Z,34.18
2019-03-25T00:23:52.664Z,31.33
2019-03-25T00:26:23.851Z,32.60
2019-03-25T00:28:55.036Z,33.58
2019-03-25T00:31:26.178Z,33.63
2019-03-25T00:33:57.310Z,32.67
2019-03-25T00:36:28.608Z,33.23
2019-03-25T00:38:59.664Z,30.30
2019-03-25T00:41:30.743Z,34.18
2019-03-25T00:44:03.311Z,35.03
2019-03-25T00:46:35.685Z,34.78
2019-03-25T00:49:06.874Z,34.35
2019-03-25T00:51:38.173Z,36.53
2019-03-25T00:54:14.707Z,33.67
2019-03-25T00:56:47.068Z,34.08
2019-03-25T00:59:18.273Z,34.65
2019-03-25T01:01:52.456Z,31.85
2019-03-25T01:04:24.598Z,32.83
2019-03-25T01:06:55.793Z,34.20
2019-03-25T01:09:30.602Z,33.00
2019-03-25T01:12:03.127Z,32.50
2019-03-25T01:14:34.419Z,33.73
2019-03-25T01:17:05.301Z,34.50
2019-03-25T01:19:45.220Z,34.53
2019-03-25T01:22:11.944Z,32.50
2019-03-25T01:24:42.933Z,34.00
2019-03-25T01:27:14.188Z,33.92
2019-03-25T01:29:45.398Z,34.58
2019-03-25T01:32:19.814Z,33.05
2019-03-25T01:34:51.142Z,32.15
2019-03-25T01:37:22.170Z,34.98
2019-03-25T01:39:54.976Z,35.08
2019-03-25T01:42:28.185Z,31.50
2019-03-25T01:44:59.256Z,33.70
2019-03-25T01:47:30.644Z,32.75
2019-03-25T01:50:02.292Z,33.98
2019-03-25T01:52:34.240Z,31.45
2019-03-25T01:55:13.932Z,31.17
2019-03-25T01:57:45.365Z,30.72
2019-03-25T02:00:19.710Z,29.75
2019-03-25T02:03:03.426Z,30.37
2019-03-25T02:05:36.646Z,31.07
2019-03-25T02:08:15.522Z,26.37
2019-03-25T02:14:06.848Z,25.25
2019-03-25T02:16:39.447Z,24.43
2019-03-25T02:19:10.559Z,23.02
2019-03-25T02:21:41.637Z,24.10
2019-03-25T02:24:13.791Z,24.32
2019-03-25T02:26:48.804Z,23.22
2019-03-25T02:29:23.808Z,23.00
2019-03-25T02:31:55.036Z,22.05
2019-03-25T02:34:27.269Z,24.52
2019-03-25T02:36:58.299Z,23.45
2019-03-25T02:39:31.825Z,21.87
2019-03-25T02:42:07.167Z,22.75
2019-03-25T02:44:38.088Z,22.40
2019-03-25T02:47:09.111Z,22.22
2019-03-25T02:49:40.457Z,21.87
2019-03-25T02:52:11.790Z,22.13
2019-03-25T02:54:42.779Z,22.40
2019-03-25T02:57:14.233Z,22.05
2019-03-25T02:59:45.660Z,24.12
2019-03-25T03:02:16.674Z,21.10
2019-03-25T03:04:47.951Z,21.15
2019-03-25T03:07:20.875Z,22.60
2019-03-25T03:09:53.249Z,21.65
2019-03-25T03:12:25.738Z,22.07
2019-03-25T03:15:01.190Z,21.07
2019-03-25T03:17:32.502Z,21.07
2019-03-25T03:20:04.965Z,19.87
2019-03-25T03:22:36.248Z,20.80
2019-03-25T03:25:07.936Z,21.60
2019-03-25T03:27:39.036Z,21.48
2019-03-25T03:30:10.217Z,20.48
2019-03-25T03:32:41.327Z,20.05
2019-03-25T03:35:12.594Z,20.57
2019-03-25T03:37:48.738Z,19.70
2019-03-25T03:40:19.759Z,19.95
2019-03-25T03:42:51.393Z,19.37
2019-03-25T03:45:23.158Z,19.57
2019-03-25T03:47:58.756Z,20.12
2019-03-25T03:50:32.935Z,20.70
2019-03-25T03:53:04.461Z,20.45
2019-03-25T03:55:39.764Z,19.95
2019-03-25T03:58:11.173Z,18.60
2019-03-25T04:00:47.033Z,19.45
2019-03-25T04:03:18.262Z,20.60
2019-03-25T04:05:49.934Z,20.27
2019-03-25T04:08:21.004Z,19.37
2019-03-25T04:10:52.086Z,18.73
2019-03-25T04:13:23.219Z,17.65
2019-03-25T04:15:54.234Z,17.77
2019-03-25T04:18:28.214Z,19.05
2019-03-25T04:20:59.372Z,19.27
2019-03-25T04:23:30.358Z,21.00
2019-03-25T04:26:01.705Z,20.55
2019-03-25T04:28:33.530Z,21.27
2019-03-25T04:31:04.482Z,22.07
2019-03-25T04:33:35.515Z,20.08
2019-03-25T04:36:06.931Z,22.67
2019-03-25T04:38:38.408Z,22.32
2019-03-25T04:41:09.732Z,21.35
2019-03-25T04:43:42.268Z,22.52
2019-03-25T04:46:14.580Z,20.90
2019-03-25T04:48:45.707Z,21.12
2019-03-25T04:51:16.844Z,21.17
2019-03-25T04:53:51.508Z,21.33
2019-03-25T04:56:22.833Z,20.90
2019-03-25T04:58:54.167Z,20.80
2019-03-25T05:01:28.879Z,20.72
2019-03-25T05:04:01.677Z,20.72
2019-03-25T05:06:33.192Z,21.95
2019-03-25T05:09:04.460Z,20.72
2019-03-25T05:11:36.743Z,20.90
2019-03-25T05:14:08.828Z,20.40
2019-03-25T05:16:39.631Z,19.92
2019-03-25T05:19:11.107Z,20.08
2019-03-25T05:21:51.877Z,19.37
2019-03-25T05:24:18.629Z,20.30
2019-03-25T05:26:51.337Z,19.85
2019-03-25T05:29:23.621Z,19.87
2019-03-25T05:31:54.556Z,19.52
2019-03-25T05:34:36.946Z,19.73
2019-03-25T05:37:02.928Z,19.50
2019-03-25T05:39:33.854Z,19.02
2019-03-25T05:42:05.050Z,19.90
2019-03-25T05:44:50.071Z,19.37
2019-03-25T05:47:22.941Z,20.20
2019-03-25T05:49:54.317Z,19.48
2019-03-25T05:52:25.459Z,19.25
2019-03-25T05:54:59.345Z,19.57
2019-03-25T05:57:30.150Z,18.90
2019-03-25T06:00:01.142Z,19.07
2019-03-25T06:02:33.852Z,18.77
2019-03-25T06:05:05.354Z,19.40
2019-03-25T06:07:36.392Z,18.55
2019-03-25T06:10:10.132Z,19.00
2019-03-25T06:12:45.174Z,18.75
2019-03-25T06:15:16.801Z,19.57
2019-03-25T06:17:48.019Z,19.42
2019-03-25T06:20:20.445Z,18.45
2019-03-25T06:22:51.437Z,19.77
2019-03-25T06:25:23.781Z,20.95
2019-03-25T06:27:54.847Z,20.10
2019-03-25T06:30:27.126Z,20.97
2019-03-25T06:32:58.377Z,19.35
2019-03-25T06:35:29.430Z,20.43
2019-03-25T06:38:00.556Z,20.25
2019-03-25T06:40:32.929Z,20.57
2019-03-25T06:43:09.490Z,21.95
2019-03-25T06:45:41.553Z,22.82
2019-03-25T06:48:14.161Z,21.00
2019-03-25T06:50:45.394Z,19.98
2019-03-25T06:53:16.312Z,20.88
2019-03-25T06:55:47.369Z,21.45
2019-03-25T06:58:18.495Z,19.40
2019-03-25T07:00:51.287Z,20.45
2019-03-25T07:03:30.851Z,21.12
2019-03-25T07:06:02.099Z,21.48
2019-03-25T07:08:36.945Z,21.05
2019-03-25T07:11:08.087Z,20.48
2019-03-25T07:13:39.304Z,20.92
2019-03-25T07:16:09.974Z,21.17
2019-03-25T07:18:41.151Z,21.27
2019-03-25T07:21:15.169Z,21.23
2019-03-25T07:23:47.623Z,20.65
2019-03-25T07:26:20.139Z,22.70
2019-03-25T07:28:55.762Z,22.35
2019-03-25T07:31:32.283Z,22.05
2019-03-25T07:34:11.339Z,22.13
2019-03-25T07:36:40.733Z,21.45
2019-03-25T07:39:16.331Z,20.55
2019-03-25T07:41:50.928Z,20.77
2019-03-25T07:44:22.426Z,20.97
2019-03-25T07:46:54.875Z,19.32
2019-03-25T07:49:29.187Z,20.50
2019-03-25T07:52:02.838Z,20.85
2019-03-25T07:54:33.837Z,21.80
2019-03-25T07:57:06.673Z,21.70
2019-03-25T07:59:38.086Z,22.35
2019-03-25T08:02:09.365Z,22.25
2019-03-25T08:04:41.738Z,22.17
2019-03-25T08:07:13.631Z,23.42
2019-03-25T08:09:45.727Z,23.62
2019-03-25T08:12:16.943Z,23.95
2019-03-25T08:14:49.228Z,21.80
2019-03-25T08:17:20.096Z,21.70
2019-03-25T08:19:54.307Z,21.45
2019-03-25T08:22:25.366Z,22.05
2019-03-25T08:24:59.566Z,21.02
2019-03-25T08:27:31.107Z,23.10
2019-03-25T08:30:02.288Z,21.77
2019-03-25T08:32:35.997Z,21.57
2019-03-25T08:35:08.539Z,22.05
2019-03-25T08:37:42.033Z,22.93
2019-03-25T08:40:17.059Z,22.05
2019-03-25T08:42:49.483Z,21.25
2019-03-25T08:45:23.001Z,22.05
2019-03-25T08:48:00.149Z,21.73
2019-03-25T08:50:36.767Z,22.22
2019-03-25T08:53:07.933Z,21.90
2019-03-25T08:55:39.315Z,19.92
2019-03-25T08:58:12.258Z,20.35
2019-03-25T09:00:42.856Z,20.88
2019-03-25T09:03:14.718Z,20.55
2019-03-25T09:05:45.900Z,20.80
2019-03-25T09:08:17.287Z,20.15
2019-03-25T09:10:48.186Z,19.85
2019-03-25T09:13:19.211Z,20.50
2019-03-25T09:15:50.530Z,19.70
2019-03-25T09:18:23.891Z,19.62
2019-03-25T09:20:55.180Z,19.50
2019-03-25T09:23:26.532Z,18.87
2019-03-25T09:25:59.593Z,19.90
2019-03-25T09:28:30.309Z,25.80
2019-03-25T09:31:03.496Z,22.42
2019-03-25T09:33:35.249Z,20.27
2019-03-25T09:36:08.209Z,19.32
2019-03-25T09:38:39.689Z,18.85
2019-03-25T09:41:13.776Z,19.90
2019-03-25T09:43:44.902Z,20.57
2019-03-25T09:46:16.283Z,20.17
2019-03-25T09:48:47.319Z,20.27
2019-03-25T09:51:18.253Z,19.73
2019-03-25T09:53:49.443Z,19.48
2019-03-25T09:56:22.470Z,19.25
2019-03-25T09:58:53.515Z,19.77
2019-03-25T10:01:25.827Z,19.20
2019-03-25T10:03:58.054Z,19.77
2019-03-25T10:06:28.767Z,19.37
2019-03-25T10:08:59.825Z,19.27
2019-03-25T10:11:35.607Z,18.92
2019-03-25T10:14:06.966Z,18.70
2019-03-25T10:16:38.582Z,18.87
2019-03-25T10:19:11.099Z,18.87
2019-03-25T10:21:42.316Z,19.57
2019-03-25T10:24:13.386Z,18.87
2019-03-25T10:26:44.539Z,19.48
2019-03-25T10:29:15.432Z,19.77
2019-03-25T10:31:46.423Z,18.48
2019-03-25T10:34:17.599Z,18.75
2019-03-25T10:36:48.529Z,19.20
2019-03-25T10:39:19.620Z,17.65
2019-03-25T10:41:53.621Z,19.92
2019-03-25T10:44:24.757Z,22.65
2019-03-25T10:47:03.710Z,24.35
2019-03-25T10:49:29.291Z,24.18
2019-03-25T10:52:01.415Z,24.70
2019-03-25T10:54:32.384Z,26.50
2019-03-25T10:57:03.282Z,25.50
2019-03-25T10:59:34.404Z,24.87
2019-03-25T11:02:06.945Z,23.47
2019-03-25T11:04:38.047Z,24.37
2019-03-25T11:07:09.104Z,22.52
2019-03-25T11:09:40.192Z,23.92
2019-03-25T11:12:12.658Z,23.77
2019-03-25T11:14:43.884Z,23.70
2019-03-25T11:17:15.050Z,24.75
2019-03-25T11:19:46.147Z,24.60
2019-03-25T11:22:17.186Z,24.72
2019-03-25T11:24:48.339Z,25.37
2019-03-25T11:27:19.530Z,23.18
2019-03-25T11:29:51.941Z,24.67
2019-03-25T11:32:22.997Z,26.07
2019-03-25T11:34:54.031Z,25.92
2019-03-25T11:37:25.200Z,26.30
2019-03-25T11:39:56.173Z,26.33
2019-03-25T11:42:28.400Z,26.25
2019-03-25T11:44:59.449Z,25.25
2019-03-25T11:47:40.309Z,27.90
2019-03-25T11:50:13.572Z,26.93
2019-03-25T11:52:44.742Z,26.35
2019-03-25T11:55:17.868Z,27.15
2019-03-25T11:57:48.914Z,25.68
2019-03-25T12:00:23.259Z,25.90
2019-03-25T12:02:53.472Z,27.52
2019-03-25T12:05:24.370Z,27.60
2019-03-25T12:07:55.072Z,27.32
2019-03-25T12:10:26.099Z,28.02
2019-03-25T12:12:59.589Z,29.82
2019-03-25T12:15:30.662Z,36.20
2019-03-25T12:18:03.358Z,37.78
2019-03-25T12:20:35.673Z,43.50
2019-03-25T12:23:06.608Z,50.30
2019-03-25T12:25:37.867Z,55.63
2019-03-25T12:28:09.087Z,61.88
2019-03-25T12:30:40.089Z,66.47
2019-03-25T12:33:11.084Z,65.83
2019-03-25T12:35:42.120Z,73.62
2019-03-25T12:38:16.366Z,68.40
2019-03-25T12:40:47.441Z,68.95
2019-03-25T12:43:18.255Z,72.37
2019-03-25T12:45:49.256Z,72.72
2019-03-25T12:48:20.294Z,62.98
2019-03-25T12:50:51.125Z,52.00
2019-03-25T12:53:22.082Z,46.73
2019-03-25T12:55:52.985Z,42.25
2019-03-25T12:58:24.031Z,42.93
2019-03-25T13:00:55.035Z,36.10
2019-03-25T13:03:26.311Z,35.23
2019-03-25T13:05:57.409Z,33.18
2019-03-25T13:08:33.040Z,33.20
2019-03-25T13:11:00.654Z,33.23
2019-03-25T13:13:31.965Z,30.92
2019-03-25T13:16:04.117Z,31.75
2019-03-25T13:18:35.943Z,27.48
2019-03-25T13:21:08.165Z,27.62
2019-03-25T13:23:39.271Z,30.27
2019-03-25T13:26:10.236Z,29.55
2019-03-25T13:28:41.284Z,31.97
2019-03-25T13:31:12.293Z,31.48
2019-03-25T13:33:43.214Z,28.95
2019-03-25T13:36:13.985Z,27.05
2019-03-25T13:38:45.087Z,28.45
2019-03-25T13:41:18.369Z,28.50
2019-03-25T13:43:49.417Z,27.90
2019-03-25T13:46:20.385Z,27.10
2019-03-25T13:48:51.586Z,27.45
2019-03-25T13:51:22.487Z,28.60
2019-03-25T13:53:53.278Z,30.12
2019-03-25T13:56:24.349Z,33.02
2019-03-25T13:58:55.231Z,34.92
2019-03-25T14:01:26.436Z,34.33
2019-03-25T14:03:57.890Z,34.75
2019-03-25T14:06:29.222Z,34.00
2019-03-25T14:09:00.397Z,34.75
2019-03-25T14:11:31.269Z,32.83
2019-03-25T14:14:02.316Z,33.63
2019-03-25T14:16:33.471Z,31.00
2019-03-25T14:19:04.659Z,32.90
2019-03-25T14:21:35.581Z,33.00
2019-03-25T14:24:06.932Z,32.45
2019-03-25T14:26:37.818Z,31.35
2019-03-25T14:29:08.559Z,29.77
2019-03-25T14:31:39.846Z,30.82
2019-03-25T14:34:10.788Z,31.10
2019-03-25T14:36:42.374Z,28.27
2019-03-25T14:39:13.351Z,29.55
2019-03-25T14:41:44.390Z,28.30
2019-03-25T14:44:15.457Z,30.40
2019-03-25T14:46:46.443Z,30.45
2019-03-25T14:49:17.359Z,32.30
2019-03-25T14:51:48.551Z,31.77
2019-03-25T14:54:19.305Z,33.13
2019-03-25T14:56:50.560Z,39.33
2019-03-25T14:59:21.599Z,38.45
2019-03-25T15:01:52.559Z,39.18
2019-03-25T15:04:23.566Z,40.40
2019-03-25T15:06:55.499Z,38.78
2019-03-25T15:09:26.499Z,41.42
2019-03-25T15:11:57.447Z,42.50
2019-03-25T15:14:28.446Z,41.08
2019-03-25T15:17:00.471Z,42.55
2019-03-25T15:19:31.406Z,37.83
2019-03-25T15:22:02.365Z,37.15
2019-03-25T15:24:33.557Z,32.95
2019-03-25T15:27:04.559Z,33.15
2019-03-25T15:29:35.551Z,31.77
2019-03-25T15:32:07.894Z,27.25
2019-03-25T15:34:38.889Z,26.97
2019-03-25T15:37:09.988Z,27.67
2019-03-25T15:39:46.779Z,26.45
2019-03-25T15:42:13.322Z,26.40
2019-03-25T15:44:44.413Z,28.40
2019-03-25T15:47:15.751Z,27.48
2019-03-25T15:49:46.597Z,27.22
2019-03-25T15:52:17.929Z,28.12
2019-03-25T15:54:48.923Z,28.10
2019-03-25T15:57:19.833Z,28.95
2019-03-25T15:59:51.096Z,30.85
2019-03-25T16:02:22.322Z,37.58
2019-03-25T16:04:53.643Z,38.78
2019-03-25T16:07:24.834Z,39.88
2019-03-25T16:09:55.858Z,43.90
2019-03-25T16:12:26.853Z,41.63
2019-03-25T16:14:57.672Z,41.42
2019-03-25T16:17:28.911Z,41.80
2019-03-25T16:19:59.829Z,40.88
2019-03-25T16:22:30.898Z,40.38
2019-03-25T16:25:01.883Z,38.20
2019-03-25T16:27:33.163Z,35.33
2019-03-25T16:30:04.554Z,34.73
2019-03-25T16:32:35.667Z,31.45
2019-03-25T16:35:08.255Z,30.35
2019-03-25T16:37:39.214Z,31.35
2019-03-25T16:40:10.467Z,29.95
2019-03-25T16:42:41.251Z,29.82
2019-03-25T16:45:12.403Z,29.48
2019-03-25T16:47:44.497Z,29.92
2019-03-25T16:50:15.807Z,28.32
2019-03-25T16:52:46.802Z,26.57
2019-03-25T16:55:18.054Z,28.77
2019-03-25T16:57:49.090Z,27.80
2019-03-25T17:00:27.230Z,27.77
2019-03-25T17:02:52.543Z,27.15
2019-03-25T17:05:24.497Z,28.35
2019-03-25T17:07:55.272Z,27.98
2019-03-25T17:10:28.717Z,26.75
2019-03-25T17:12:59.703Z,28.38
2019-03-25T17:15:30.623Z,30.23
2019-03-25T17:18:01.519Z,31.20
2019-03-25T17:20:32.789Z,33.38
2019-03-25T17:23:03.735Z,32.75
2019-03-25T17:25:34.689Z,32.17
2019-03-25T17:28:05.939Z,33.05
2019-03-25T17:30:36.809Z,32.58
2019-03-25T17:33:07.757Z,31.35
2019-03-25T17:35:38.881Z,30.15
2019-03-25T17:38:09.920Z,27.37
2019-03-25T17:40:41.071Z,30.55
2019-03-25T17:43:12.096Z,31.23
2019-03-25T17:45:43.555Z,33.00
2019-03-25T17:48:14.673Z,32.40
2019-03-25T17:50:45.712Z,32.30
2019-03-25T17:53:16.799Z,30.68
2019-03-25T17:55:47.847Z,27.32
2019-03-25T17:58:18.863Z,28.87
2019-03-25T18:00:52.554Z,27.65
2019-03-25T18:03:23.457Z,27.05
2019-03-25T18:05:54.287Z,27.70
2019-03-25T18:08:25.375Z,28.50
2019-03-25T18:10:56.379Z,27.95
2019-03-25T18:13:27.423Z,27.65
2019-03-25T18:15:58.571Z,26.87
2019-03-25T18:18:29.454Z,25.70
2019-03-25T18:21:00.514Z,27.27
2019-03-25T18:23:31.659Z,26.68
2019-03-25T18:26:02.607Z,26.62
2019-03-25T18:28:33.428Z,27.70
2019-03-25T18:31:04.513Z,27.60
2019-03-25T18:33:35.430Z,28.25
2019-03-25T18:36:06.509Z,28.38
2019-03-25T18:38:37.428Z,27.05
2019-03-25T18:41:08.247Z,27.10
2019-03-25T18:43:39.315Z,25.68
2019-03-25T18:46:10.477Z,24.80
2019-03-25T18:48:41.579Z,24.60
2019-03-25T18:51:12.518Z,25.45
2019-03-25T18:53:43.497Z,25.80
2019-03-25T18:56:14.731Z,24.92
2019-03-25T18:58:45.713Z,24.80
2019-03-25T19:01:16.820Z,23.47
2019-03-25T19:03:47.965Z,25.25
2019-03-25T19:06:19.743Z,23.40
2019-03-25T19:08:51.103Z,23.15
2019-03-25T19:11:30.827Z,23.05
2019-03-25T19:13:54.299Z,23.83
2019-03-25T19:16:25.290Z,21.82
2019-03-25T19:18:59.640Z,22.70
2019-03-25T19:21:30.634Z,21.87
2019-03-25T19:24:01.548Z,20.77
2019-03-25T19:26:32.647Z,21.75
2019-03-25T19:29:03.577Z,23.05
2019-03-25T19:31:34.869Z,22.30
2019-03-25T19:34:06.063Z,23.15
2019-03-25T19:36:37.155Z,47.48
2019-03-25T19:39:09.078Z,23.18
2019-03-25T19:41:40.028Z,19.95
2019-03-25T19:44:10.986Z,22.00
2019-03-25T19:46:42.220Z,21.75
2019-03-25T19:49:13.237Z,21.65
2019-03-25T19:51:44.138Z,22.35
2019-03-25T19:54:15.041Z,21.40
2019-03-25T19:56:46.072Z,20.05
2019-03-25T19:59:17.156Z,20.72
2019-03-25T20:01:48.042Z,19.85
2019-03-25T20:04:19.166Z,21.30
2019-03-25T20:06:50.153Z,20.88
2019-03-25T20:09:20.983Z,19.20
2019-03-25T20:11:52.221Z,20.72
2019-03-25T20:14:23.213Z,19.52
2019-03-25T20:16:54.114Z,22.40
2019-03-25T20:19:25.164Z,19.77
2019-03-25T20:21:56.168Z,19.42
2019-03-25T20:24:27.311Z,19.45
2019-03-25T20:26:58.157Z,20.10
2019-03-25T20:29:28.994Z,20.17
2019-03-25T20:31:59.993Z,20.08
2019-03-25T20:34:31.049Z,19.52
2019-03-25T20:37:02.258Z,19.77
2019-03-25T20:39:33.400Z,21.25
2019-03-25T20:42:04.535Z,21.87
2019-03-25T20:44:35.491Z,20.75
2019-03-25T20:47:06.480Z,21.90
2019-03-25T20:49:37.385Z,20.92
2019-03-25T20:52:08.294Z,20.17
2019-03-25T20:54:39.280Z,19.20
2019-03-25T20:57:10.156Z,20.30
2019-03-25T20:59:41.175Z,20.50
2019-03-25T21:02:12.173Z,20.55
2019-03-25T21:04:46.667Z,20.45
2019-03-25T21:07:17.912Z,20.05
2019-03-25T21:09:48.943Z,20.23
2019-03-25T21:12:19.875Z,20.80
2019-03-25T21:14:51.109Z,20.23
2019-03-25T21:17:22.922Z,21.05
2019-03-25T21:19:53.936Z,21.00
2019-03-25T21:22:25.274Z,22.40
2019-03-25T21:24:56.266Z,21.57
2019-03-25T21:27:27.641Z,21.25
2019-03-25T21:29:58.873Z,21.97
2019-03-25T21:32:29.939Z,20.43
2019-03-25T21:35:01.093Z,20.90
2019-03-25T21:37:32.374Z,21.25
2019-03-25T21:40:03.479Z,21.07
2019-03-25T21:42:34.580Z,21.42
2019-03-25T21:45:07.851Z,20.17
2019-03-25T21:47:39.024Z,21.60
2019-03-25T21:50:10.318Z,19.67
2019-03-25T21:52:41.459Z,20.50
2019-03-25T21:55:12.551Z,22.40
2019-03-25T21:57:43.720Z,20.45
2019-03-25T22:00:15.473Z,18.77
2019-03-25T22:02:46.614Z,19.42
2019-03-25T22:05:17.602Z,21.25
2019-03-25T22:07:48.604Z,21.33
2019-03-25T22:10:19.581Z,23.22
2019-03-25T22:12:50.555Z,22.52
2019-03-25T22:15:21.622Z,22.22
2019-03-25T22:17:52.866Z,21.23
2019-03-25T22:20:23.870Z,21.15
2019-03-25T22:22:54.542Z,23.15
2019-03-25T22:25:25.477Z,20.72
2019-03-25T22:27:56.377Z,21.25
2019-03-25T22:30:27.550Z,22.48
2019-03-25T22:32:58.603Z,21.27
2019-03-25T22:35:30.249Z,21.25
2019-03-25T22:38:01.298Z,22.00
2019-03-25T22:40:32.069Z,22.05
2019-03-25T22:43:02.998Z,21.15
2019-03-25T22:45:34.789Z,21.85
2019-03-25T22:48:07.522Z,21.23
2019-03-25T22:50:38.983Z,21.93
2019-03-25T22:53:09.897Z,22.27
2019-03-25T22:55:40.808Z,23.52
2019-03-25T22:58:12.514Z,22.80
2019-03-25T23:00:45.165Z,21.55
2019-03-25T23:03:16.349Z,21.50
2019-03-25T23:05:48.286Z,22.07
2019-03-25T23:08:19.373Z,21.42
2019-03-25T23:10:50.367Z,23.15
2019-03-25T23:13:21.340Z,22.45
2019-03-25T23:15:52.585Z,23.47
2019-03-25T23:18:23.528Z,23.73
2019-03-25T23:20:54.508Z,24.00
2019-03-25T23:23:25.454Z,24.40
2019-03-25T23:25:56.482Z,23.38
2019-03-25T23:28:27.653Z,23.77
2019-03-25T23:30:58.611Z,25.50
2019-03-25T23:33:30.716Z,25.45
2019-03-25T23:36:02.162Z,26.80
2019-03-25T23:38:33.028Z,26.77
2019-03-25T23:41:04.113Z,26.05
2019-03-25T23:43:35.039Z,24.10
2019-03-25T23:46:06.105Z,28.32
2019-03-25T23:48:37.019Z,29.50
2019-03-25T23:51:07.946Z,30.10
2019-03-25T23:53:38.847Z,29.15
2019-03-25T23:56:09.859Z,29.87
2019-03-25T23:58:44.997Z,26.33
